Saltford, United Kingdom
Current Conditions -  °F | °C
As of 1:50 AM on Sunday 21 Dec 2014 (Local Time) from EGGD Reporting Station
Broken Clouds Broken Clouds  
Wind Chill: 36°   Ceiling: 200
Heat Index: 43°   Visibility: 6mi
Dew Point: 41°   Wind: 13mph
Humidity: 93%   Direction: 220°SW
Pressure: 30.42"   Gusts: NA
Location:  51.4°N, 2.46°W
Report Text: EGGD 210150Z 22011KT 9999 2000E BKN002 06/05 Q1030
Loading
Personal Weather Stations






























Interactive Weather Map New forecast layout! Learn more

10-Day Weather Forecast

Advertisements
Track Severe Weather on mobile